createdAt,value
2017-09-21T00:00:53.314Z,88.00
2017-09-21T00:03:20.874Z,87.90
2017-09-21T00:05:48.423Z,88.00
2017-09-21T00:08:16.012Z,87.90
2017-09-21T00:10:48.381Z,88.00
2017-09-21T00:13:15.934Z,88.00
2017-09-21T00:15:43.501Z,88.00
2017-09-21T00:18:11.094Z,88.00
2017-09-21T00:20:38.691Z,87.90
2017-09-21T00:23:06.253Z,87.90
2017-09-21T00:25:34.749Z,87.90
2017-09-21T00:28:02.307Z,87.90
2017-09-21T00:30:29.858Z,87.90
2017-09-21T00:32:57.443Z,87.90
2017-09-21T00:35:24.995Z,88.10
2017-09-21T00:37:52.585Z,88.20
2017-09-21T00:40:20.893Z,88.50
2017-09-21T00:42:49.398Z,88.50
2017-09-21T00:45:16.947Z,88.40
2017-09-21T00:47:44.789Z,88.50
2017-09-21T00:50:12.370Z,88.50
2017-09-21T00:52:39.961Z,88.40
2017-09-21T00:55:08.003Z,88.50
2017-09-21T00:57:35.546Z,88.50
2017-09-21T01:00:03.105Z,88.50
2017-09-21T01:02:31.222Z,88.60
2017-09-21T01:04:58.765Z,88.70
2017-09-21T01:07:26.306Z,88.80
2017-09-21T01:09:53.898Z,88.90
2017-09-21T01:12:21.442Z,89.10
2017-09-21T01:14:49.174Z,89.10
2017-09-21T01:17:16.721Z,89.10
2017-09-21T01:19:45.079Z,89.00
2017-09-21T01:22:12.640Z,89.70
2017-09-21T01:24:40.226Z,88.90
2017-09-21T01:27:08.534Z,89.00
2017-09-21T01:29:36.641Z,88.90
2017-09-21T01:32:04.193Z,89.00
2017-09-21T01:34:31.741Z,89.00
2017-09-21T01:36:59.393Z,89.00
2017-09-21T01:39:26.977Z,88.90
2017-09-21T01:41:54.534Z,88.90
2017-09-21T01:44:25.287Z,88.90
2017-09-21T01:46:52.858Z,88.90
2017-09-21T01:49:20.446Z,88.90
2017-09-21T01:51:47.985Z,88.90
2017-09-21T01:54:17.056Z,88.90
2017-09-21T01:56:44.610Z,88.90
2017-09-21T01:59:12.161Z,88.90
2017-09-21T02:01:40.119Z,88.90
2017-09-21T02:04:07.779Z,88.90
2017-09-21T02:06:35.336Z,89.00
2017-09-21T02:09:03.538Z,89.00
2017-09-21T02:11:31.093Z,89.00
2017-09-21T02:13:58.659Z,89.10
2017-09-21T02:16:30.101Z,89.10
2017-09-21T02:18:57.649Z,89.10
2017-09-21T02:21:25.509Z,89.20
2017-09-21T02:23:53.054Z,89.30
2017-09-21T02:26:21.375Z,89.50
2017-09-21T02:28:49.341Z,89.50
2017-09-21T02:31:19.473Z,89.40
2017-09-21T02:33:47.025Z,89.40
2017-09-21T02:36:14.621Z,89.20
2017-09-21T02:38:42.978Z,89.20
2017-09-21T02:41:10.530Z,89.20
2017-09-21T02:43:41.099Z,89.20
2017-09-21T02:46:08.877Z,89.00
2017-09-21T02:48:36.434Z,89.00
2017-09-21T02:51:04.102Z,89.00
2017-09-21T02:53:31.660Z,89.00
2017-09-21T02:55:59.206Z,89.00
2017-09-21T02:58:26.797Z,88.90
2017-09-21T03:00:54.352Z,88.90
2017-09-21T03:03:22.328Z,88.90
2017-09-21T03:05:49.883Z,89.00
2017-09-21T03:08:17.442Z,88.90
2017-09-21T03:10:45.038Z,89.10
2017-09-21T03:13:12.589Z,89.20
2017-09-21T03:15:40.335Z,89.20
2017-09-21T03:18:07.888Z,89.20
2017-09-21T03:20:35.474Z,89.20
2017-09-21T03:23:03.014Z,89.10
2017-09-21T03:25:30.997Z,89.10
2017-09-21T03:27:58.547Z,89.20
2017-09-21T03:30:26.093Z,89.30
2017-09-21T03:32:55.330Z,89.50
2017-09-21T03:35:22.881Z,89.60
2017-09-21T03:37:50.427Z,89.50
2017-09-21T03:40:18.302Z,89.70
2017-09-21T03:42:45.837Z,89.60
2017-09-21T03:45:13.437Z,89.70
2017-09-21T03:47:41.022Z,89.60
2017-09-21T03:50:09.326Z,89.80
2017-09-21T03:52:36.966Z,89.70
2017-09-21T03:55:05.276Z,89.80
2017-09-21T03:57:32.859Z,89.80
2017-09-21T04:00:00.406Z,89.70
2017-09-21T04:02:28.390Z,89.70
2017-09-21T04:04:55.931Z,89.70
2017-09-21T04:07:23.465Z,89.60
2017-09-21T04:09:51.193Z,89.70
2017-09-21T04:12:18.730Z,89.50
2017-09-21T04:14:46.311Z,89.30
2017-09-21T04:17:13.862Z,89.20
2017-09-21T04:19:41.476Z,89.10
2017-09-21T04:22:09.054Z,89.00
2017-09-21T04:24:36.750Z,89.10
2017-09-21T04:27:04.287Z,89.20
2017-09-21T04:29:31.874Z,89.20
2017-09-21T04:31:59.417Z,89.20
2017-09-21T04:34:27.085Z,89.20
2017-09-21T04:36:54.647Z,89.20
2017-09-21T04:39:22.277Z,89.20
2017-09-21T04:41:49.816Z,89.10
2017-09-21T04:44:17.782Z,89.10
2017-09-21T04:46:45.549Z,89.10
2017-09-21T04:49:13.101Z,89.10
2017-09-21T04:51:41.442Z,89.10
2017-09-21T04:54:09.278Z,89.10
2017-09-21T04:56:36.821Z,89.20
2017-09-21T04:59:04.364Z,89.40
2017-09-21T05:01:33.270Z,89.70
2017-09-21T05:04:01.422Z,89.60
2017-09-21T05:06:29.022Z,89.80
2017-09-21T05:08:57.981Z,89.90
2017-09-21T05:11:25.562Z,89.90
2017-09-21T05:13:53.582Z,89.90
2017-09-21T05:16:25.998Z,89.90
2017-09-21T05:18:53.898Z,90.00
2017-09-21T05:21:22.606Z,90.00
2017-09-21T05:23:50.198Z,90.00
2017-09-21T05:26:18.863Z,89.90
2017-09-21T05:28:46.477Z,89.90
2017-09-21T05:31:14.265Z,89.80
2017-09-21T05:33:42.351Z,89.80
2017-09-21T05:36:10.423Z,89.90
2017-09-21T05:38:38.202Z,90.00
2017-09-21T05:41:06.275Z,90.00
2017-09-21T05:43:33.826Z,90.00
2017-09-21T05:46:01.381Z,90.40
2017-09-21T05:48:29.239Z,90.10
2017-09-21T05:50:56.825Z,90.10
2017-09-21T05:53:24.370Z,90.20
2017-09-21T05:55:52.424Z,90.40
2017-09-21T05:58:19.959Z,90.20
2017-09-21T06:00:47.497Z,90.20
2017-09-21T06:03:20.121Z,90.20
2017-09-21T06:05:47.663Z,90.20
2017-09-21T06:08:15.214Z,90.20
2017-09-21T06:10:43.122Z,90.20
2017-09-21T06:13:10.704Z,90.20
2017-09-21T06:15:39.020Z,90.60
2017-09-21T06:18:08.830Z,90.20
2017-09-21T06:20:36.377Z,90.20
2017-09-21T06:23:05.247Z,90.30
2017-09-21T06:25:32.785Z,90.30
2017-09-21T06:28:00.366Z,90.20
2017-09-21T06:30:28.687Z,90.20
2017-09-21T06:32:56.894Z,90.20
2017-09-21T06:35:24.453Z,90.20
2017-09-21T06:37:52.021Z,90.20
2017-09-21T06:40:19.752Z,90.20
2017-09-21T06:42:48.817Z,90.20
2017-09-21T06:45:17.125Z,90.20
2017-09-21T06:47:44.669Z,90.20
2017-09-21T06:50:13.648Z,90.30
2017-09-21T06:52:41.959Z,90.30
2017-09-21T06:55:09.536Z,90.20
2017-09-21T06:57:37.078Z,90.20
2017-09-21T07:00:04.667Z,90.30
2017-09-21T07:02:32.209Z,90.30
2017-09-21T07:04:59.926Z,90.30
2017-09-21T07:07:28.282Z,90.40
2017-09-21T07:09:55.865Z,90.40
2017-09-21T07:12:24.178Z,90.40
2017-09-21T07:14:51.960Z,90.30
2017-09-21T07:17:19.793Z,90.40
2017-09-21T07:19:47.384Z,90.40
2017-09-21T07:22:14.931Z,90.40
2017-09-21T07:24:42.474Z,90.40
2017-09-21T07:27:10.057Z,90.40
2017-09-21T07:29:37.988Z,90.40
2017-09-21T07:32:05.538Z,90.40
2017-09-21T07:34:33.859Z,90.40
2017-09-21T07:37:01.515Z,90.40
2017-09-21T07:39:30.022Z,90.40
2017-09-21T07:41:57.558Z,90.40
2017-09-21T07:44:25.106Z,90.00
2017-09-21T07:46:52.693Z,89.90
2017-09-21T07:49:20.238Z,89.90
2017-09-21T07:51:47.855Z,89.90
2017-09-21T07:54:16.165Z,89.90
2017-09-21T07:56:44.066Z,89.80
2017-09-21T07:59:11.606Z,89.80
2017-09-21T08:01:39.602Z,89.80
2017-09-21T08:04:07.154Z,89.90
2017-09-21T08:06:34.700Z,90.00
2017-09-21T08:09:03.338Z,90.00
2017-09-21T08:11:31.718Z,90.00
2017-09-21T08:14:00.031Z,90.00
2017-09-21T08:16:28.005Z,90.30
2017-09-21T08:18:55.559Z,90.10
2017-09-21T08:21:23.227Z,90.00
2017-09-21T08:23:50.770Z,90.00
2017-09-21T08:26:18.352Z,90.00
2017-09-21T08:28:45.945Z,90.00
2017-09-21T08:31:17.139Z,90.00
2017-09-21T08:33:44.717Z,89.90
2017-09-21T08:36:13.046Z,89.60
2017-09-21T08:38:41.691Z,89.60
2017-09-21T08:41:09.391Z,89.50
2017-09-21T08:43:37.702Z,89.90
2017-09-21T08:46:05.246Z,89.30
2017-09-21T08:48:33.622Z,89.10
2017-09-21T08:51:01.940Z,89.00
2017-09-21T08:53:29.520Z,89.00
2017-09-21T08:55:57.062Z,89.00
2017-09-21T08:58:25.238Z,89.00
2017-09-21T09:00:52.793Z,88.70
2017-09-21T09:03:20.337Z,88.50
2017-09-21T09:05:48.233Z,88.20
2017-09-21T09:08:15.775Z,88.20
2017-09-21T09:10:43.315Z,88.10
2017-09-21T09:13:11.533Z,87.90
2017-09-21T09:15:39.335Z,87.50
2017-09-21T09:18:07.646Z,87.10
2017-09-21T09:20:35.298Z,87.10
2017-09-21T09:23:02.844Z,86.80
2017-09-21T09:25:32.197Z,86.30
2017-09-21T09:27:59.753Z,86.20
2017-09-21T09:30:27.289Z,86.00
2017-09-21T09:32:55.058Z,86.00
2017-09-21T09:35:23.851Z,85.90
2017-09-21T09:37:51.391Z,85.80
2017-09-21T09:40:18.933Z,85.60
2017-09-21T09:42:47.277Z,85.00
2017-09-21T09:45:14.821Z,85.00
2017-09-21T09:47:42.984Z,84.70
2017-09-21T09:50:10.517Z,84.40
2017-09-21T09:52:38.053Z,84.30
2017-09-21T09:55:07.625Z,83.40
2017-09-21T09:57:35.157Z,83.40
2017-09-21T10:00:02.757Z,83.20
2017-09-21T10:02:30.301Z,82.70
2017-09-21T10:04:58.278Z,82.60
2017-09-21T10:07:26.255Z,82.20
2017-09-21T10:09:53.804Z,81.70
2017-09-21T10:12:21.362Z,81.30
2017-09-21T10:14:49.757Z,80.70
2017-09-21T10:17:17.308Z,80.20
2017-09-21T10:19:44.846Z,79.80
2017-09-21T10:22:14.134Z,79.20
2017-09-21T10:24:41.688Z,78.80
2017-09-21T10:27:09.224Z,78.30
2017-09-21T10:29:37.581Z,77.50
2017-09-21T10:32:05.462Z,77.40
2017-09-21T10:34:33.785Z,76.80
2017-09-21T10:37:01.322Z,76.80
2017-09-21T10:39:29.093Z,76.60
2017-09-21T10:41:56.688Z,76.60
2017-09-21T10:44:24.235Z,76.20
2017-09-21T10:46:53.365Z,76.00
2017-09-21T10:49:20.909Z,75.60
2017-09-21T10:51:48.457Z,75.10
2017-09-21T10:54:16.434Z,75.00
2017-09-21T10:56:43.976Z,74.70
2017-09-21T10:59:11.521Z,73.60
2017-09-21T11:01:39.135Z,73.50
2017-09-21T11:04:06.670Z,73.20
2017-09-21T11:06:34.221Z,72.90
2017-09-21T11:09:02.210Z,72.70
2017-09-21T11:11:29.754Z,72.40
2017-09-21T11:13:57.333Z,72.30
2017-09-21T11:16:26.686Z,72.30
2017-09-21T11:18:54.342Z,72.10
2017-09-21T11:21:21.903Z,71.60
2017-09-21T11:23:49.670Z,71.50
2017-09-21T11:26:17.228Z,71.20
2017-09-21T11:28:45.349Z,70.90
2017-09-21T11:31:12.897Z,71.00
2017-09-21T11:33:40.446Z,70.90
2017-09-21T11:36:08.444Z,70.90
2017-09-21T11:38:35.992Z,70.60
2017-09-21T11:41:03.549Z,70.40
2017-09-21T11:43:31.602Z,69.40
2017-09-21T11:45:59.146Z,69.10
2017-09-21T11:48:26.693Z,69.10
2017-09-21T11:50:55.058Z,68.70
2017-09-21T11:53:23.373Z,67.80
2017-09-21T11:55:50.964Z,68.20
2017-09-21T11:58:18.505Z,67.80
2017-09-21T12:00:46.149Z,67.70
2017-09-21T12:03:14.179Z,67.40
2017-09-21T12:05:41.726Z,67.20
2017-09-21T12:08:09.280Z,67.10
2017-09-21T12:10:36.866Z,66.80
2017-09-21T12:13:04.448Z,66.80
2017-09-21T12:15:32.763Z,66.60
2017-09-21T12:18:05.981Z,66.50
2017-09-21T12:20:38.855Z,66.30
2017-09-21T12:23:06.447Z,66.00
2017-09-21T12:25:34.758Z,64.60
2017-09-21T12:28:02.346Z,65.10
2017-09-21T12:30:30.326Z,65.20
2017-09-21T12:32:57.879Z,65.30
2017-09-21T12:35:26.344Z,65.30
2017-09-21T12:37:54.237Z,65.00
2017-09-21T12:40:21.799Z,64.90
2017-09-21T12:42:49.400Z,64.80
2017-09-21T12:45:16.946Z,64.90
2017-09-21T12:47:45.307Z,64.70
2017-09-21T12:50:12.867Z,64.60
2017-09-21T12:52:40.823Z,64.60
2017-09-21T12:55:08.383Z,64.50
2017-09-21T12:57:35.983Z,64.50
2017-09-21T13:00:04.291Z,64.10
2017-09-21T13:02:31.887Z,64.10
2017-09-21T13:04:59.443Z,63.90
2017-09-21T13:07:27.188Z,64.00
2017-09-21T13:09:54.734Z,64.10
2017-09-21T13:12:22.331Z,64.10
2017-09-21T13:14:49.985Z,63.80
2017-09-21T13:17:17.579Z,63.50
2017-09-21T13:19:45.119Z,63.40
2017-09-21T13:22:12.766Z,63.00
2017-09-21T13:24:40.314Z,62.70
2017-09-21T13:27:08.930Z,62.70
2017-09-21T13:29:36.478Z,62.50
2017-09-21T13:32:04.023Z,62.50
2017-09-21T13:34:31.675Z,62.60
2017-09-21T13:36:59.230Z,62.70
2017-09-21T13:39:29.480Z,62.20
2017-09-21T13:41:57.029Z,61.80
2017-09-21T13:44:24.564Z,61.40
2017-09-21T13:46:52.473Z,61.40
2017-09-21T13:49:20.283Z,61.40
2017-09-21T13:51:48.597Z,61.20
2017-09-21T13:54:16.202Z,61.10
2017-09-21T13:56:44.513Z,61.00
2017-09-21T13:59:12.212Z,61.00
2017-09-21T14:01:39.764Z,61.10
2017-09-21T14:04:07.321Z,61.40
2017-09-21T14:06:34.951Z,61.30
2017-09-21T14:09:02.499Z,61.00
2017-09-21T14:11:31.349Z,60.80
2017-09-21T14:13:58.894Z,60.80
2017-09-21T14:16:26.736Z,60.70
2017-09-21T14:18:54.332Z,60.80
2017-09-21T14:21:21.938Z,60.80
2017-09-21T14:23:49.530Z,60.40
2017-09-21T14:26:17.182Z,60.60
2017-09-21T14:28:44.827Z,60.30
2017-09-21T14:31:12.409Z,60.00
2017-09-21T14:33:41.057Z,59.60
2017-09-21T14:36:09.371Z,59.50
2017-09-21T14:38:36.960Z,59.40
2017-09-21T14:41:04.590Z,59.30
2017-09-21T14:43:32.147Z,59.10
2017-09-21T14:45:59.690Z,59.10
2017-09-21T14:48:29.405Z,59.10
2017-09-21T14:50:56.948Z,59.20
2017-09-21T14:53:25.263Z,59.40
2017-09-21T14:55:57.765Z,59.40
2017-09-21T14:58:25.350Z,59.40
2017-09-21T15:00:53.257Z,59.70
2017-09-21T15:03:20.855Z,60.10
2017-09-21T15:05:48.406Z,60.20
2017-09-21T15:08:16.189Z,60.20
2017-09-21T15:10:43.744Z,60.00
2017-09-21T15:13:11.811Z,59.70
2017-09-21T15:15:39.361Z,59.50
2017-09-21T15:18:06.906Z,59.40
2017-09-21T15:20:34.649Z,59.20
2017-09-21T15:23:02.317Z,59.20
2017-09-21T15:25:29.875Z,59.20
2017-09-21T15:27:57.462Z,58.70
2017-09-21T15:30:26.208Z,59.50
2017-09-21T15:32:53.762Z,59.40
2017-09-21T15:35:22.069Z,59.80
2017-09-21T15:37:49.648Z,59.80
2017-09-21T15:40:17.203Z,60.00
2017-09-21T15:42:44.889Z,59.80
2017-09-21T15:45:12.440Z,59.70
2017-09-21T15:47:40.326Z,59.60
2017-09-21T15:50:08.290Z,59.60
2017-09-21T15:52:35.847Z,59.60
2017-09-21T15:55:03.394Z,59.70
2017-09-21T15:57:30.969Z,59.80
2017-09-21T15:59:59.341Z,60.00
2017-09-21T16:02:26.895Z,60.30
2017-09-21T16:04:54.444Z,60.40
2017-09-21T16:07:23.250Z,60.50
2017-09-21T16:09:50.836Z,60.70
2017-09-21T16:12:18.395Z,60.90
2017-09-21T16:14:46.378Z,61.00
2017-09-21T16:17:14.706Z,61.70
2017-09-21T16:19:42.286Z,61.70
2017-09-21T16:22:09.838Z,61.80
2017-09-21T16:24:38.001Z,62.00
2017-09-21T16:27:05.558Z,62.40
2017-09-21T16:29:33.106Z,62.60
2017-09-21T16:32:00.845Z,62.90
2017-09-21T16:34:29.166Z,63.40
2017-09-21T16:36:56.758Z,63.40
2017-09-21T16:39:24.303Z,63.60
2017-09-21T16:41:51.885Z,63.90
2017-09-21T16:44:19.430Z,64.20
2017-09-21T16:46:48.734Z,64.40
2017-09-21T16:49:16.277Z,64.70
2017-09-21T16:51:43.821Z,65.10
2017-09-21T16:54:11.705Z,65.20
2017-09-21T16:56:39.254Z,65.70
2017-09-21T16:59:06.802Z,66.00
2017-09-21T17:01:34.595Z,66.30
2017-09-21T17:04:14.168Z,66.70
2017-09-21T17:06:42.946Z,67.50
2017-09-21T17:09:10.490Z,67.50
2017-09-21T17:11:38.039Z,67.80
2017-09-21T17:14:08.472Z,68.30
2017-09-21T17:16:40.275Z,69.10
2017-09-21T17:19:08.055Z,69.10
2017-09-21T17:21:35.637Z,69.40
2017-09-21T17:24:03.219Z,69.90
2017-09-21T17:26:30.873Z,70.20
2017-09-21T17:28:58.416Z,70.50
2017-09-21T17:31:25.961Z,70.80
2017-09-21T17:34:00.820Z,71.20
2017-09-21T17:36:28.363Z,71.50
2017-09-21T17:38:56.015Z,71.90
2017-09-21T17:41:23.559Z,72.20
2017-09-21T17:43:51.904Z,73.10
2017-09-21T17:46:19.441Z,72.90
2017-09-21T17:48:47.110Z,73.40
2017-09-21T17:51:15.002Z,73.70
2017-09-21T17:53:42.552Z,74.10
2017-09-21T17:56:10.174Z,74.30
2017-09-21T17:58:38.068Z,74.50
2017-09-21T18:01:05.612Z,74.80
2017-09-21T18:03:33.203Z,75.00
2017-09-21T18:06:00.757Z,75.20
2017-09-21T18:08:28.409Z,75.30
2017-09-21T18:10:55.957Z,75.60
2017-09-21T18:13:24.027Z,75.70
2017-09-21T18:15:54.921Z,76.00
2017-09-21T18:18:23.330Z,76.50
2017-09-21T18:20:50.868Z,76.50
2017-09-21T18:23:18.553Z,76.70
2017-09-21T18:25:46.087Z,77.00
2017-09-21T18:28:14.382Z,77.50
2017-09-21T18:30:42.121Z,77.60
2017-09-21T18:33:10.515Z,78.00
2017-09-21T18:35:38.053Z,77.90
2017-09-21T18:38:06.402Z,78.30
2017-09-21T18:40:34.366Z,78.30
2017-09-21T18:43:01.897Z,78.50
2017-09-21T18:45:29.434Z,78.60
2017-09-21T18:47:57.862Z,79.70
2017-09-21T18:50:25.860Z,78.90
2017-09-21T18:52:53.449Z,79.10
2017-09-21T18:55:21.805Z,79.40
2017-09-21T18:57:49.386Z,79.40
2017-09-21T19:00:17.690Z,79.50
2017-09-21T19:02:45.390Z,79.50
2017-09-21T19:05:12.935Z,79.70
2017-09-21T19:07:40.478Z,79.80
2017-09-21T19:10:08.363Z,80.00
2017-09-21T19:12:36.330Z,80.10
2017-09-21T19:15:06.969Z,80.20
2017-09-21T19:17:38.005Z,80.30
2017-09-21T19:20:05.736Z,80.30
2017-09-21T19:22:33.738Z,80.60
2017-09-21T19:25:01.277Z,80.60
2017-09-21T19:27:28.818Z,80.70
2017-09-21T19:29:56.533Z,80.80
2017-09-21T19:32:24.115Z,80.90
2017-09-21T19:34:52.427Z,80.90
2017-09-21T19:37:20.013Z,80.90
2017-09-21T19:39:47.550Z,81.10
2017-09-21T19:42:15.169Z,81.30
2017-09-21T19:44:43.490Z,81.20
2017-09-21T19:47:11.051Z,81.20
2017-09-21T19:49:41.166Z,81.30
2017-09-21T19:52:08.705Z,81.40
2017-09-21T19:54:37.054Z,81.70
2017-09-21T19:57:04.638Z,81.60
2017-09-21T19:59:32.999Z,81.80
2017-09-21T20:02:00.542Z,81.80
2017-09-21T20:04:28.194Z,81.80
2017-09-21T20:06:55.827Z,81.90
2017-09-21T20:09:23.413Z,81.90
2017-09-21T20:11:50.966Z,82.00
2017-09-21T20:14:24.045Z,82.00
2017-09-21T20:16:51.596Z,82.00
2017-09-21T20:19:19.146Z,82.00
2017-09-21T20:21:46.897Z,81.90
2017-09-21T20:24:15.246Z,82.20
2017-09-21T20:26:42.810Z,82.20
2017-09-21T20:29:11.314Z,82.30
2017-09-21T20:31:38.942Z,82.50
2017-09-21T20:34:06.507Z,82.50
2017-09-21T20:39:26.824Z,82.50
2017-09-21T20:41:54.378Z,82.50
2017-09-21T20:44:21.930Z,82.50
2017-09-21T20:46:49.553Z,82.50
2017-09-21T20:49:17.097Z,82.70
2017-09-21T20:51:46.835Z,82.80
2017-09-21T20:54:14.442Z,82.80
2017-09-21T20:56:41.997Z,82.70
2017-09-21T20:59:09.557Z,82.80
2017-09-21T21:01:37.466Z,82.80
2017-09-21T21:04:05.022Z,82.90
2017-09-21T21:06:34.641Z,83.10
2017-09-21T21:09:02.250Z,83.20
2017-09-21T21:11:29.801Z,83.30
2017-09-21T21:13:57.377Z,83.50
2017-09-21T21:16:30.655Z,83.60
2017-09-21T21:18:58.631Z,83.80
2017-09-21T21:21:26.186Z,83.80
2017-09-21T21:23:53.749Z,83.90
2017-09-21T21:26:21.394Z,84.00
2017-09-21T21:28:48.953Z,84.00
2017-09-21T21:31:16.608Z,84.10
2017-09-21T21:33:44.287Z,84.10
2017-09-21T21:36:12.158Z,84.10
2017-09-21T21:38:39.711Z,84.10
2017-09-21T21:41:07.297Z,84.00
2017-09-21T21:43:34.886Z,84.00
2017-09-21T21:46:03.197Z,83.90
2017-09-21T21:48:31.242Z,83.90
2017-09-21T21:50:58.793Z,83.90
2017-09-21T21:53:27.116Z,83.90
2017-09-21T21:55:54.713Z,83.90
2017-09-21T21:58:22.270Z,83.90
2017-09-21T22:00:51.145Z,83.90
2017-09-21T22:03:18.695Z,83.90
2017-09-21T22:05:46.442Z,84.00
2017-09-21T22:08:14.106Z,84.00
2017-09-21T22:10:41.998Z,84.10
2017-09-21T22:13:09.545Z,84.10
2017-09-21T22:15:37.093Z,84.20
2017-09-21T22:18:06.625Z,84.10
2017-09-21T22:20:34.222Z,84.10
2017-09-21T22:23:02.546Z,84.10
2017-09-21T22:25:30.482Z,84.00
2017-09-21T22:27:58.024Z,84.10
2017-09-21T22:30:26.338Z,84.00
2017-09-21T22:32:53.917Z,84.00
2017-09-21T22:35:21.465Z,84.10
2017-09-21T22:37:49.185Z,84.00
2017-09-21T22:40:17.511Z,84.20
2017-09-21T22:42:45.126Z,84.00
2017-09-21T22:45:13.445Z,84.20
2017-09-21T22:47:41.004Z,84.20
2017-09-21T22:50:09.798Z,84.30
2017-09-21T22:52:37.347Z,84.20
2017-09-21T22:55:04.889Z,84.30
2017-09-21T22:57:32.520Z,84.40
2017-09-21T23:00:00.879Z,84.60
2017-09-21T23:02:28.742Z,84.40
2017-09-21T23:04:56.301Z,84.50
2017-09-21T23:07:23.862Z,84.60
2017-09-21T23:09:54.077Z,84.60
2017-09-21T23:12:21.710Z,84.70
2017-09-21T23:14:49.573Z,84.80
2017-09-21T23:17:17.134Z,85.50
2017-09-21T23:19:44.725Z,84.80
2017-09-21T23:22:12.281Z,84.90
2017-09-21T23:24:39.982Z,84.90
2017-09-21T23:27:08.311Z,85.00
2017-09-21T23:29:35.861Z,85.00
2017-09-21T23:32:03.874Z,85.00
2017-09-21T23:34:31.417Z,85.10
2017-09-21T23:36:58.968Z,85.10
2017-09-21T23:39:28.194Z,85.10
2017-09-21T23:41:55.755Z,85.10
2017-09-21T23:44:23.309Z,85.20
2017-09-21T23:46:50.975Z,85.20
2017-09-21T23:49:18.568Z,85.30
2017-09-21T23:51:46.936Z,85.40
2017-09-21T23:54:15.309Z,85.50
2017-09-21T23:56:42.866Z,85.40
2017-09-21T23:59:10.454Z,85.00
